Urania, Louisiana
Current Conditions -  °F | °C
As of 4:53 PM on Friday 28 Nov 2014 (Local Time) from KESF Reporting Station
Clear Clear  
Wind Chill: 14°   Ceiling: Unl
Heat Index: 14°   Visibility: 10mi
Dew Point:   Wind: 5mph
Humidity: 51%   Direction: 190°S
Pressure: 30.22"   Gusts: NA
Location:  31.86°N, 92.3°W
Report Text: KESF 282253Z AUTO 19004KT 10SM CLR 14/04 A3022 RMK AO2 SLP235 T01440044
Loading
Personal Weather Stations






























Interactive Weather Map New forecast layout! Learn more

10-Day Weather Forecast

Advertisements
Track Severe Weather on mobile